createdAt,value
2022-09-15T00:01:03.157Z,14.80
2022-09-15T00:03:30.054Z,15.10
2022-09-15T00:05:56.954Z,18.50
2022-09-15T00:08:25.200Z,15.50
2022-09-15T00:10:57.492Z,18.00
2022-09-15T00:13:25.753Z,15.70
2022-09-15T00:15:52.883Z,17.00
2022-09-15T00:18:19.452Z,17.30
2022-09-15T00:20:46.515Z,17.80
2022-09-15T00:23:15.551Z,16.50
2022-09-15T00:25:48.556Z,14.60
2022-09-15T00:28:22.275Z,16.20
2022-09-15T00:30:54.846Z,17.90
2022-09-15T00:33:23.295Z,18.80
2022-09-15T00:35:53.343Z,16.10
2022-09-15T00:38:21.094Z,16.80
2022-09-15T00:40:56.616Z,17.70
2022-09-15T00:43:49.374Z,17.50
2022-09-15T00:46:20.876Z,19.70
2022-09-15T00:49:10.965Z,18.20
2022-09-15T00:51:47.590Z,20.10
2022-09-15T00:54:35.913Z,19.80
2022-09-15T00:57:09.629Z,19.40
2022-09-15T00:59:40.093Z,22.00
2022-09-15T01:02:28.159Z,19.10
2022-09-15T01:04:58.521Z,18.10
2022-09-15T01:07:40.239Z,19.60
2022-09-15T01:10:15.258Z,17.80
2022-09-15T01:12:42.622Z,19.20
2022-09-15T01:15:09.476Z,19.20
2022-09-15T01:18:07.161Z,18.20
2022-09-15T01:21:03.298Z,18.60
2022-09-15T01:24:05.407Z,16.40
2022-09-15T01:27:18.453Z,20.20
2022-09-15T01:30:06.060Z,19.50
2022-09-15T01:33:05.192Z,18.40
2022-09-15T01:36:01.323Z,16.90
2022-09-15T01:38:37.777Z,17.20
2022-09-15T01:41:29.989Z,17.20
2022-09-15T01:44:11.816Z,18.50
2022-09-15T01:46:47.109Z,19.90
2022-09-15T01:49:22.555Z,17.40
2022-09-15T01:51:53.623Z,17.00
2022-09-15T01:54:33.962Z,17.00
2022-09-15T01:57:02.981Z,15.30
2022-09-15T01:59:29.538Z,15.40
2022-09-15T02:02:06.352Z,18.20
2022-09-15T02:04:46.959Z,17.40
2022-09-15T02:07:47.795Z,17.50
2022-09-15T02:13:17.027Z,14.90
2022-09-15T02:15:51.568Z,15.30
2022-09-15T02:18:34.820Z,15.40
2022-09-15T02:21:15.017Z,17.10
2022-09-15T02:23:57.122Z,13.60
2022-09-15T02:26:28.824Z,13.60
2022-09-15T02:29:00.001Z,14.10
2022-09-15T02:31:28.082Z,14.60
2022-09-15T02:34:00.469Z,13.00
2022-09-15T02:36:30.413Z,12.80
2022-09-15T02:39:07.847Z,14.30
2022-09-15T02:41:36.550Z,14.10
2022-09-15T02:44:03.808Z,14.80
2022-09-15T02:46:30.378Z,14.40
2022-09-15T02:48:59.954Z,13.20
2022-09-15T02:51:26.482Z,15.20
2022-09-15T02:53:53.774Z,13.70
2022-09-15T02:56:20.856Z,12.70
2022-09-15T02:58:47.319Z,14.90
2022-09-15T03:01:15.691Z,13.20
2022-09-15T03:03:45.002Z,13.40
2022-09-15T03:06:16.573Z,12.70
2022-09-15T03:08:48.468Z,12.70
2022-09-15T03:11:16.014Z,14.60
2022-09-15T03:13:43.360Z,13.10
2022-09-15T03:16:12.989Z,10.50
2022-09-15T03:18:40.549Z,12.90
2022-09-15T03:21:11.942Z,11.50
2022-09-15T03:23:38.696Z,10.10
2022-09-15T03:26:05.930Z,10.60
2022-09-15T03:28:32.669Z,9.30
2022-09-15T03:30:59.492Z,11.00
2022-09-15T03:33:26.109Z,9.40
2022-09-15T03:35:53.449Z,10.30
2022-09-15T03:38:20.829Z,10.30
2022-09-15T03:40:59.766Z,9.70
2022-09-15T03:43:27.470Z,13.40
2022-09-15T03:45:56.067Z,8.90
2022-09-15T03:48:24.561Z,9.60
2022-09-15T03:50:51.657Z,10.00
2022-09-15T03:53:18.994Z,8.60
2022-09-15T03:55:47.934Z,11.40
2022-09-15T03:58:16.139Z,8.40
2022-09-15T04:00:43.870Z,11.20
2022-09-15T04:03:10.487Z,11.70
2022-09-15T04:05:38.710Z,10.30
2022-09-15T04:08:05.452Z,9.80
2022-09-15T04:10:32.040Z,11.10
2022-09-15T04:12:58.510Z,7.70
2022-09-15T04:15:24.984Z,8.50
2022-09-15T04:17:52.066Z,8.60
2022-09-15T04:20:18.745Z,8.70
2022-09-15T04:22:45.216Z,9.90
2022-09-15T04:25:12.153Z,8.10
2022-09-15T04:27:39.022Z,8.40
2022-09-15T04:30:08.069Z,7.70
2022-09-15T04:32:35.737Z,8.50
2022-09-15T04:35:04.376Z,8.30
2022-09-15T04:37:31.937Z,8.50
2022-09-15T04:39:58.472Z,9.10
2022-09-15T04:42:25.946Z,11.90
2022-09-15T04:44:52.405Z,9.00
2022-09-15T04:47:19.475Z,9.10
2022-09-15T04:49:46.981Z,9.10
2022-09-15T04:52:13.720Z,9.10
2022-09-15T04:54:40.212Z,9.30
2022-09-15T04:57:06.849Z,8.70
2022-09-15T04:59:33.546Z,10.50
2022-09-15T05:02:00.224Z,8.70
2022-09-15T05:04:26.765Z,8.60
2022-09-15T05:06:53.270Z,9.50
2022-09-15T05:09:19.729Z,8.60
2022-09-15T05:11:46.461Z,9.50
2022-09-15T05:14:12.996Z,11.50
2022-09-15T05:16:40.224Z,8.90
2022-09-15T05:19:06.862Z,11.40
2022-09-15T05:21:33.869Z,10.80
2022-09-15T05:24:00.630Z,8.70
2022-09-15T05:26:29.603Z,10.40
2022-09-15T05:28:57.413Z,16.30
2022-09-15T05:31:30.591Z,16.20
2022-09-15T05:34:03.813Z,8.60
2022-09-15T05:36:30.842Z,8.40
2022-09-15T05:38:58.633Z,8.00
2022-09-15T05:41:27.429Z,8.60
2022-09-15T05:43:57.071Z,7.30
2022-09-15T05:46:27.395Z,8.30
2022-09-15T05:48:57.370Z,9.10
2022-09-15T05:51:24.592Z,9.40
2022-09-15T05:53:51.718Z,7.90
2022-09-15T05:56:20.088Z,10.10
2022-09-15T05:58:48.877Z,11.80
2022-09-15T06:01:22.970Z,9.60
2022-09-15T06:03:50.274Z,9.00
2022-09-15T06:06:17.196Z,10.30
2022-09-15T06:08:51.849Z,8.40
2022-09-15T06:11:33.740Z,9.50
2022-09-15T06:14:03.016Z,6.70
2022-09-15T06:16:33.879Z,7.10
2022-09-15T06:19:01.437Z,8.00
2022-09-15T06:21:30.185Z,9.80
2022-09-15T06:24:00.466Z,9.10
2022-09-15T06:26:28.161Z,12.20
2022-09-15T06:29:01.094Z,8.30
2022-09-15T06:31:31.388Z,8.30
2022-09-15T06:33:59.343Z,8.80
2022-09-15T06:36:29.838Z,7.40
2022-09-15T06:38:57.036Z,9.20
2022-09-15T06:41:23.892Z,7.40
2022-09-15T06:43:50.578Z,9.70
2022-09-15T06:46:21.832Z,8.70
2022-09-15T06:48:49.009Z,7.50
2022-09-15T06:51:17.846Z,9.00
2022-09-15T06:53:45.809Z,9.30
2022-09-15T06:56:16.546Z,9.10
2022-09-15T06:58:44.117Z,8.30
2022-09-15T07:01:14.383Z,10.70
2022-09-15T07:03:43.943Z,10.10
2022-09-15T07:06:14.913Z,11.20
2022-09-15T07:08:41.835Z,10.00
2022-09-15T07:11:10.349Z,11.00
2022-09-15T07:13:37.543Z,10.50
2022-09-15T07:16:07.696Z,9.70
2022-09-15T07:18:38.629Z,8.10
2022-09-15T07:21:17.459Z,9.90
2022-09-15T07:23:44.596Z,12.10
2022-09-15T07:26:21.713Z,11.00
2022-09-15T07:28:56.435Z,11.90
2022-09-15T07:31:26.863Z,13.10
2022-09-15T07:33:53.879Z,10.90
2022-09-15T07:36:20.768Z,10.80
2022-09-15T07:38:49.793Z,8.50
2022-09-15T07:41:23.379Z,8.50
2022-09-15T07:43:56.318Z,12.10
2022-09-15T07:46:25.348Z,11.40
2022-09-15T07:48:56.918Z,12.20
2022-09-15T07:51:25.005Z,9.60
2022-09-15T07:53:53.202Z,9.40
2022-09-15T07:56:20.473Z,14.10
2022-09-15T07:58:48.626Z,12.50
2022-09-15T08:01:17.795Z,8.30
2022-09-15T08:03:48.959Z,11.50
2022-09-15T08:06:18.813Z,8.70
2022-09-15T08:08:46.588Z,9.60
2022-09-15T08:11:19.086Z,9.30
2022-09-15T08:13:51.422Z,10.70
2022-09-15T08:16:24.094Z,9.70
2022-09-15T08:18:54.415Z,9.70
2022-09-15T08:21:22.108Z,8.70
2022-09-15T08:23:56.518Z,7.40
2022-09-15T08:26:24.690Z,9.60
2022-09-15T08:28:51.550Z,8.90
2022-09-15T08:31:18.426Z,9.10
2022-09-15T08:33:53.536Z,6.10
2022-09-15T08:36:20.408Z,7.70
2022-09-15T08:38:47.293Z,7.90
2022-09-15T08:41:31.621Z,6.90
2022-09-15T08:44:10.734Z,6.20
2022-09-15T08:46:53.722Z,8.20
2022-09-15T08:49:53.869Z,7.20
2022-09-15T08:52:41.690Z,6.90
2022-09-15T08:55:54.470Z,9.50
2022-09-15T08:58:25.809Z,6.90
2022-09-15T09:01:12.115Z,7.60
2022-09-15T09:04:31.634Z,7.60
2022-09-15T09:07:12.915Z,5.50
2022-09-15T09:09:55.388Z,6.70
2022-09-15T09:12:41.124Z,5.60
2022-09-15T09:15:44.363Z,4.80
2022-09-15T09:18:37.726Z,6.40
2022-09-15T09:21:13.397Z,5.40
2022-09-15T09:24:03.717Z,5.60
2022-09-15T09:26:35.465Z,7.80
2022-09-15T09:29:13.145Z,5.90
2022-09-15T09:31:41.553Z,5.10
2022-09-15T09:34:23.217Z,6.00
2022-09-15T09:37:09.797Z,5.50
2022-09-15T09:39:36.414Z,6.80
2022-09-15T09:42:05.754Z,5.00
2022-09-15T09:44:32.810Z,3.80
2022-09-15T09:47:01.343Z,3.60
2022-09-15T09:49:36.186Z,5.30
2022-09-15T09:52:04.591Z,7.00
2022-09-15T09:54:33.887Z,4.70
2022-09-15T09:57:31.858Z,5.70
2022-09-15T09:59:58.611Z,5.70
2022-09-15T10:02:29.004Z,5.70
2022-09-15T10:05:19.317Z,4.90
2022-09-15T10:07:46.843Z,4.20
2022-09-15T10:10:23.789Z,4.50
2022-09-15T10:12:56.412Z,5.20
2022-09-15T10:15:31.940Z,4.80
2022-09-15T10:17:58.843Z,7.10
2022-09-15T10:20:35.576Z,4.70
2022-09-15T10:23:27.684Z,7.60
2022-09-15T10:26:15.665Z,5.10
2022-09-15T10:28:44.187Z,5.80
2022-09-15T10:31:30.401Z,5.30
2022-09-15T10:33:57.256Z,4.10
2022-09-15T10:36:30.871Z,5.20
2022-09-15T10:39:37.282Z,5.10
2022-09-15T10:42:35.815Z,5.00
2022-09-15T10:45:25.918Z,3.90
2022-09-15T10:48:28.451Z,6.30
2022-09-15T10:51:32.006Z,4.10
2022-09-15T10:54:41.250Z,4.40
2022-09-15T10:57:33.589Z,6.40
2022-09-15T11:00:23.010Z,6.80
2022-09-15T11:03:31.065Z,4.70
2022-09-15T11:06:00.452Z,3.40
2022-09-15T11:09:03.509Z,5.40
2022-09-15T11:11:54.578Z,5.00
2022-09-15T11:15:06.472Z,4.50
2022-09-15T11:18:16.956Z,3.40
2022-09-15T11:21:03.365Z,5.20
2022-09-15T11:23:52.801Z,5.50
2022-09-15T11:26:41.117Z,3.90
2022-09-15T11:29:26.058Z,4.30
2022-09-15T11:34:47.127Z,5.40
2022-09-15T11:37:22.608Z,5.40
2022-09-15T11:40:00.329Z,6.50
2022-09-15T11:42:38.237Z,3.60
2022-09-15T11:45:14.822Z,4.20
2022-09-15T11:47:50.362Z,5.00
2022-09-15T11:50:32.516Z,5.80
2022-09-15T11:53:13.467Z,5.90
2022-09-15T11:55:55.821Z,6.20
2022-09-15T11:58:37.332Z,5.00
2022-09-15T12:01:28.135Z,4.40
2022-09-15T12:04:08.506Z,4.70
2022-09-15T12:06:46.291Z,5.90
2022-09-15T12:09:21.607Z,3.30
2022-09-15T12:11:54.277Z,5.50
2022-09-15T12:14:38.376Z,5.70
2022-09-15T12:17:09.710Z,9.00
2022-09-15T12:20:06.222Z,6.10
2022-09-15T12:23:01.288Z,6.10
2022-09-15T12:25:48.003Z,4.80
2022-09-15T12:28:27.481Z,5.20
2022-09-15T12:31:22.634Z,5.70
2022-09-15T12:34:35.139Z,4.10
2022-09-15T12:37:14.970Z,4.30
2022-09-15T12:39:44.871Z,5.20
2022-09-15T12:42:37.577Z,3.90
2022-09-15T12:45:21.210Z,5.00
2022-09-15T12:48:03.970Z,5.90
2022-09-15T12:51:11.922Z,5.90
2022-09-15T12:53:53.339Z,3.70
2022-09-15T12:56:27.102Z,5.20
2022-09-15T12:58:55.395Z,5.70
2022-09-15T13:01:24.683Z,5.70
2022-09-15T13:03:51.284Z,5.20
2022-09-15T13:06:26.221Z,5.90
2022-09-15T13:09:01.844Z,5.60
2022-09-15T13:11:37.533Z,9.50
2022-09-15T13:14:04.210Z,6.20
2022-09-15T13:16:49.783Z,6.50
2022-09-15T13:19:35.927Z,6.90
2022-09-15T13:22:16.397Z,6.10
2022-09-15T13:25:01.624Z,5.30
2022-09-15T13:27:37.474Z,6.70
2022-09-15T13:30:40.001Z,5.60
2022-09-15T13:40:32.334Z,5.20
2022-09-15T13:43:11.125Z,5.60
2022-09-15T13:45:57.881Z,7.80
2022-09-15T13:48:57.833Z,4.60
2022-09-15T13:51:31.105Z,5.70
2022-09-15T13:54:06.178Z,4.80
2022-09-15T13:56:41.164Z,5.80
2022-09-15T13:59:18.242Z,5.40
2022-09-15T14:01:45.986Z,6.50
2022-09-15T14:04:19.178Z,7.30
2022-09-15T14:06:50.029Z,7.90
2022-09-15T14:09:21.641Z,8.40
2022-09-15T14:11:54.045Z,8.10
2022-09-15T14:14:42.283Z,6.60
2022-09-15T14:17:27.178Z,6.40
2022-09-15T14:19:57.099Z,5.30
2022-09-15T14:22:31.467Z,5.10
2022-09-15T14:25:05.112Z,6.30
2022-09-15T14:27:38.314Z,6.60
2022-09-15T14:30:09.213Z,4.90
2022-09-15T14:32:45.034Z,6.10
2022-09-15T14:35:20.000Z,7.70
2022-09-15T14:37:56.590Z,6.40
2022-09-15T14:40:30.223Z,8.20
2022-09-15T14:42:58.248Z,10.90
2022-09-15T14:45:57.490Z,8.10
2022-09-15T14:48:28.196Z,7.40
2022-09-15T14:51:07.190Z,9.70
2022-09-15T14:53:39.277Z,7.80
2022-09-15T14:56:22.705Z,12.40
2022-09-15T14:59:02.462Z,13.40
2022-09-15T15:01:50.862Z,7.10
2022-09-15T15:04:34.848Z,6.30
2022-09-15T15:07:20.052Z,5.60
2022-09-15T15:09:51.792Z,5.50
2022-09-15T15:12:45.361Z,8.00
2022-09-15T15:15:14.685Z,5.40
2022-09-15T15:17:46.664Z,5.80
2022-09-15T15:20:28.322Z,6.60
2022-09-15T15:23:24.494Z,5.50
2022-09-15T15:25:52.936Z,6.60
2022-09-15T15:28:38.598Z,6.60
2022-09-15T15:31:20.534Z,7.60
2022-09-15T15:33:53.264Z,7.10
2022-09-15T15:36:24.136Z,10.30
2022-09-15T15:39:01.678Z,8.80
2022-09-15T15:41:31.856Z,8.10
2022-09-15T15:44:18.362Z,6.30
2022-09-15T15:46:53.703Z,6.00
2022-09-15T15:49:26.148Z,5.60
2022-09-15T15:51:57.276Z,7.40
2022-09-15T15:54:25.399Z,6.80
2022-09-15T15:56:53.192Z,7.70
2022-09-15T15:59:20.941Z,8.10
2022-09-15T16:01:55.417Z,6.00
2022-09-15T16:04:22.001Z,4.10
2022-09-15T16:06:48.574Z,6.30
2022-09-15T16:09:17.839Z,6.90
2022-09-15T16:11:44.558Z,9.30
2022-09-15T16:14:13.544Z,7.40
2022-09-15T16:16:40.870Z,11.20
2022-09-15T16:19:08.562Z,8.30
2022-09-15T16:21:40.104Z,13.60
2022-09-15T16:24:13.038Z,13.70
2022-09-15T16:26:40.528Z,15.50
2022-09-15T16:29:07.287Z,22.30
2022-09-15T16:31:35.094Z,19.30
2022-09-15T16:34:02.027Z,15.60
2022-09-15T16:36:32.946Z,10.90
2022-09-15T16:38:59.415Z,7.70
2022-09-15T16:41:26.010Z,10.00
2022-09-15T16:43:59.367Z,13.10
2022-09-15T16:46:26.070Z,10.80
2022-09-15T16:48:52.735Z,8.00
2022-09-15T16:51:29.779Z,8.30
2022-09-15T16:53:58.049Z,9.30
2022-09-15T16:56:24.623Z,6.80
2022-09-15T16:58:58.863Z,8.70
2022-09-15T17:01:26.923Z,13.90
2022-09-15T17:03:53.584Z,11.30
2022-09-15T17:06:22.305Z,10.20
2022-09-15T17:08:49.679Z,9.80
2022-09-15T17:11:20.125Z,8.70
2022-09-15T17:13:47.361Z,8.50
2022-09-15T17:16:19.381Z,10.90
2022-09-15T17:18:46.785Z,10.90
2022-09-15T17:21:16.884Z,16.20
2022-09-15T17:23:47.917Z,15.80
2022-09-15T17:26:22.076Z,14.20
2022-09-15T17:28:48.997Z,13.50
2022-09-15T17:31:20.359Z,11.80
2022-09-15T17:33:48.805Z,13.30
2022-09-15T17:36:16.429Z,14.20
2022-09-15T17:38:44.902Z,15.10
2022-09-15T17:41:20.582Z,14.30
2022-09-15T17:43:47.866Z,16.40
2022-09-15T17:46:14.559Z,12.20
2022-09-15T17:48:41.397Z,15.20
2022-09-15T17:51:15.580Z,10.60
2022-09-15T17:53:42.741Z,8.90
2022-09-15T17:56:09.208Z,9.70
2022-09-15T17:58:36.329Z,7.40
2022-09-15T18:01:04.060Z,8.60
2022-09-15T18:03:34.863Z,8.20
2022-09-15T18:06:08.184Z,9.70
2022-09-15T18:08:38.534Z,10.60
2022-09-15T18:11:06.328Z,11.00
2022-09-15T18:13:34.031Z,11.10
2022-09-15T18:16:13.048Z,15.80
2022-09-15T18:18:40.883Z,14.40
2022-09-15T18:21:12.322Z,11.80
2022-09-15T18:23:39.132Z,12.20
2022-09-15T18:26:05.850Z,12.30
2022-09-15T18:28:32.421Z,13.70
2022-09-15T18:30:58.961Z,8.40
2022-09-15T18:33:26.311Z,9.50
2022-09-15T18:35:56.697Z,8.50
2022-09-15T18:38:24.094Z,9.50
2022-09-15T18:40:55.343Z,9.80
2022-09-15T18:43:25.248Z,11.70
2022-09-15T18:45:54.716Z,13.10
2022-09-15T18:48:21.310Z,12.10
2022-09-15T18:50:47.861Z,13.40
2022-09-15T18:53:14.446Z,11.70
2022-09-15T18:55:42.586Z,12.60
2022-09-15T18:58:10.695Z,10.20
2022-09-15T19:00:37.828Z,11.10
2022-09-15T19:03:09.392Z,33.40
2022-09-15T19:05:37.107Z,72.00
2022-09-15T19:08:04.424Z,44.60
2022-09-15T19:10:32.516Z,21.00
2022-09-15T19:12:59.136Z,18.50
2022-09-15T19:15:25.797Z,13.80
2022-09-15T19:17:52.291Z,10.00
2022-09-15T19:20:19.606Z,9.80
2022-09-15T19:22:47.387Z,12.20
2022-09-15T19:25:14.141Z,11.50
2022-09-15T19:27:41.277Z,18.50
2022-09-15T19:30:12.302Z,15.60
2022-09-15T19:32:40.992Z,11.80
2022-09-15T19:35:09.115Z,11.30
2022-09-15T19:37:38.127Z,12.90
2022-09-15T19:40:10.097Z,10.30
2022-09-15T19:42:42.321Z,9.70
2022-09-15T19:45:11.268Z,13.30
2022-09-15T19:47:38.792Z,10.70
2022-09-15T19:50:08.406Z,9.10
2022-09-15T19:52:35.902Z,11.00
2022-09-15T19:55:04.114Z,9.60
2022-09-15T19:57:30.597Z,10.00
2022-09-15T19:59:57.118Z,9.20
2022-09-15T20:02:23.697Z,10.30
2022-09-15T20:04:50.453Z,12.20
2022-09-15T20:07:17.229Z,9.70
2022-09-15T20:09:44.157Z,11.40
2022-09-15T20:12:10.798Z,14.10
2022-09-15T20:14:37.470Z,19.00
2022-09-15T20:17:04.689Z,10.70
2022-09-15T20:19:31.281Z,10.10
2022-09-15T20:21:58.233Z,8.90
2022-09-15T20:24:25.436Z,7.90
2022-09-15T20:26:52.245Z,10.30
2022-09-15T20:29:19.548Z,10.80
2022-09-15T20:31:46.536Z,9.50
2022-09-15T20:34:13.559Z,21.20
2022-09-15T20:36:40.658Z,33.80
2022-09-15T20:39:13.218Z,18.90
2022-09-15T20:41:44.795Z,23.10
2022-09-15T20:44:12.096Z,16.90
2022-09-15T20:46:39.426Z,10.10
2022-09-15T20:49:06.861Z,10.30
2022-09-15T20:51:34.270Z,18.80
2022-09-15T20:54:04.225Z,27.40
2022-09-15T20:56:35.011Z,17.70
2022-09-15T20:59:04.406Z,9.70
2022-09-15T21:01:37.653Z,11.00
2022-09-15T21:04:06.016Z,12.40
2022-09-15T21:06:33.653Z,12.50
2022-09-15T21:09:01.174Z,23.30
2022-09-15T21:11:30.127Z,21.10
2022-09-15T21:13:58.651Z,11.00
2022-09-15T21:16:28.419Z,12.00
2022-09-15T21:18:57.497Z,12.80
2022-09-15T21:21:31.475Z,12.80
2022-09-15T21:24:03.730Z,10.90
2022-09-15T21:27:00.210Z,10.60
2022-09-15T21:29:27.915Z,9.80
2022-09-15T21:31:58.527Z,8.60
2022-09-15T21:34:26.293Z,11.00
2022-09-15T21:36:53.675Z,8.20
2022-09-15T21:39:20.376Z,8.20
2022-09-15T21:41:47.065Z,9.20
2022-09-15T21:44:13.785Z,7.60
2022-09-15T21:46:40.352Z,8.40
2022-09-15T21:49:08.059Z,6.40
2022-09-15T21:51:34.624Z,7.90
2022-09-15T21:54:01.265Z,9.40
2022-09-15T21:56:30.215Z,11.60
2022-09-15T21:58:57.407Z,6.20
2022-09-15T22:01:27.906Z,7.60
2022-09-15T22:04:05.135Z,7.40
2022-09-15T22:06:35.402Z,8.00
2022-09-15T22:09:09.077Z,8.10
2022-09-15T22:11:36.031Z,7.40
2022-09-15T22:14:07.959Z,7.60
2022-09-15T22:16:39.214Z,7.20
2022-09-15T22:19:09.878Z,8.10
2022-09-15T22:21:39.489Z,8.80
2022-09-15T22:24:07.134Z,7.60
2022-09-15T22:26:37.226Z,6.40
2022-09-15T22:29:05.817Z,7.60
2022-09-15T22:31:32.864Z,9.50
2022-09-15T22:33:59.541Z,6.00
2022-09-15T22:36:30.309Z,8.30
2022-09-15T22:39:04.360Z,6.80
2022-09-15T22:41:36.169Z,8.00
2022-09-15T22:44:04.426Z,8.40
2022-09-15T22:46:31.809Z,7.20
2022-09-15T22:48:58.554Z,8.40
2022-09-15T22:51:25.165Z,8.20
2022-09-15T22:53:57.076Z,7.50
2022-09-15T22:56:26.515Z,6.60
2022-09-15T22:58:53.922Z,8.30
2022-09-15T23:01:28.054Z,8.50
2022-09-15T23:04:01.324Z,7.00
2022-09-15T23:06:32.460Z,8.00
2022-09-15T23:09:03.259Z,6.50
2022-09-15T23:11:33.341Z,7.50
2022-09-15T23:14:01.094Z,9.20
2022-09-15T23:16:29.490Z,9.80
2022-09-15T23:18:56.402Z,7.70
2022-09-15T23:21:23.085Z,7.10
2022-09-15T23:23:50.502Z,7.80
2022-09-15T23:26:19.750Z,8.10
2022-09-15T23:28:47.407Z,6.60
2022-09-15T23:31:14.068Z,8.50
2022-09-15T23:33:41.591Z,8.90
2022-09-15T23:36:12.798Z,7.70
2022-09-15T23:38:41.472Z,9.70
2022-09-15T23:41:09.139Z,9.00
2022-09-15T23:43:35.846Z,7.20
2022-09-15T23:46:04.420Z,9.80
2022-09-15T23:48:34.232Z,9.20
2022-09-15T23:51:01.500Z,10.50
2022-09-15T23:53:28.927Z,9.50
2022-09-15T23:55:55.677Z,7.60
2022-09-15T23:58:23.354Z,9.00
